• Join FlightAware (Why Join?)
  • Login
  • US Flag 
06:06AM EDT


 

Airport Tracker/Info


-or-


 

Live Flight TrackerFlight Track Log ✈ UAL1177 ✈ 14-Apr-2013 ✈ KLAX - KORD

Flight Track Log - Related Links

Times and Time Zones

All times are in EDT time to prevent confusion due to time zone crossing. See the UAL1177 flight status page for this flight to view local times or setup timezone preferences in your user account.

Time Position Orientation Groundspeed Altitude Reporting Facility
EDT Latitude Longitude Course Direction KTS MPH feet Rate Location/Type
02:16AM 33.9300 -118.4510 249° West 201 231 1,600  Level FlightAware
02:16AM 33.9230 -118.4660 241° Southwest 223 257 1,900 2,100 Climbing FlightAware
02:16AM 33.9080 -118.4890 232° Southwest 231 266 3,000 2,400 Climbing FlightAware
02:17AM 33.8800 -118.5220 224° Southwest 266 306 4,100 2,220 Climbing FlightAware
02:17AM 33.8650 -118.5280 198° South 274 315 4,700 3,420 Climbing FlightAware
02:18AM 33.8110 -118.5270 179° South 296 341 6,400 3,240 Climbing FlightAware
02:18AM 33.7700 -118.5250 178° South 311 358 7,700 2,940 Climbing FlightAware
02:19AM 33.7310 -118.5220 176° South 313 360 9,100 3,120 Climbing FlightAware
02:19AM 33.7110 -118.5140 162° South 321 369 9,800 2,760 Climbing FlightAware
02:19AM 33.6930 -118.4950 139° Southeast 330 380 10,500 1,980 Climbing FlightAware
02:19AM 33.6820 -118.4730 121° Southeast 344 396 10,800 1,500 Climbing FlightAware
02:20AM 33.6600 -118.3950 109° East 376 433 11,900 2,040 Climbing FlightAware
02:21AM 33.6450 -118.3020 101° East 383 441 13,700 1,680 Climbing FlightAware
02:21AM 33.6450 -118.2640 90° East 385 443 14,300 1,500 Climbing FlightAware
02:22AM 33.6720 -118.1580 73° East 399 459 15,500 2,400 Climbing FlightAware
02:23AM 33.7300 -118.1030 38° Northeast 394 453 17,100 2,220 Climbing FlightAware
02:23AM 33.7890 -118.0500 37° Northeast 402 463 18,500 2,040 Climbing FlightAware
02:24AM 33.8590 -117.9870 37° Northeast 416 479 20,000 1,860 Climbing FlightAware
02:25AM 33.9200 -117.9310 37° Northeast 424 488 21,200 1,860 Climbing FlightAware
02:25AM 33.9910 -117.8670 37° Northeast 430 495 22,700 1,800 Climbing FlightAware
02:26AM 34.0540 -117.8090 37° Northeast 437 503 23,800 1,500 Climbing FlightAware
02:27AM 34.1240 -117.7310 43° Northeast 454 522 24,900 1,380 Climbing FlightAware
02:27AM 34.1780 -117.6580 48° Northeast 461 531 25,800 1,260 Climbing FlightAware
02:28AM 34.2360 -117.5800 48° Northeast 471 542 26,600 1,200 Climbing FlightAware
02:29AM 34.3020 -117.4890 49° Northeast 481 554 27,500 1,200 Climbing FlightAware
02:30AM 34.3630 -117.4060 48° Northeast 487 560 28,300 1,080 Climbing FlightAware
02:30AM 34.4280 -117.3170 48° Northeast 493 567 29,100 960 Climbing FlightAware
02:31AM 34.4900 -117.2330 48° Northeast 500 575 29,700 960 Climbing FlightAware
02:32AM 34.5500 -117.1500 49° Northeast 503 579 30,400 1,080 Climbing FlightAware
02:32AM 34.6200 -117.0540 48° Northeast 499 574 31,300 1,260 Climbing FlightAware
02:33AM 34.6790 -116.9720 49° Northeast 498 573 32,200 1,080 Climbing FlightAware
02:34AM 34.7510 -116.8720 49° Northeast 499 574 32,900 1,080 Climbing FlightAware
02:34AM 34.8100 -116.7910 48° Northeast 494 568 33,800 1,260 Climbing FlightAware
02:35AM 34.8700 -116.7070 49° Northeast 490 564 34,600 720 Climbing FlightAware
02:36AM 34.9390 -116.6110 49° Northeast 496 571 34,900 240 Climbing FlightAware
02:37AM 35.0020 -116.5290 47° Northeast 493 567 35,000 60 Climbing FlightAware
02:37AM 35.0720 -116.4420 45° Northeast 495 570 35,000  Level FlightAware
02:38AM 35.1370 -116.3610 46° Northeast 495 570 35,000  Level FlightAware
02:39AM 35.2060 -116.2740 46° Northeast 492 566 35,000  Level FlightAware
02:39AM 35.2730 -116.1910 45° Northeast 491 565 35,000  Level FlightAware
02:40AM 35.3370 -116.1090 46° Northeast 490 564 35,000  Level FlightAware
02:41AM 35.4060 -116.0220 46° Northeast 494 568 35,000  Level FlightAware
02:41AM 35.4690 -115.9420 46° Northeast 498 573 35,000  Level FlightAware
02:42AM 35.5440 -115.8480 46° Northeast 503 579 35,000  Level FlightAware
02:43AM 35.6090 -115.7650 46° Northeast 505 581 35,000  Level FlightAware
02:44AM 35.6730 -115.6830 46° Northeast 507 583 35,000  Level FlightAware
02:44AM 35.7460 -115.5900 46° Northeast 504 580 35,000  Level FlightAware
02:45AM 35.8100 -115.5080 46° Northeast 499 574 35,000  Level FlightAware
02:46AM 35.8830 -115.4140 46° Northeast 500 575 35,000  Level FlightAware
02:46AM 35.9450 -115.3340 46° Northeast 504 580 35,000  Level FlightAware
02:47AM 36.0180 -115.2400 46° Northeast 502 578 35,000  Level FlightAware
02:48AM 36.0770 -115.1510 51° Northeast 516 594 35,000  Level FlightAware
02:48AM 36.1170 -115.0400 66° East 522 601 35,000  Level FlightAware
02:49AM 36.1560 -114.9140 69° East 520 598 35,000  Level FlightAware
02:50AM 36.1890 -114.8050 69° East 522 601 35,000  Level FlightAware
02:51AM 36.2280 -114.6790 69° East 522 601 35,000  Level FlightAware
02:51AM 36.2620 -114.5660 70° East 522 601 35,000  Level FlightAware
02:52AM 36.2960 -114.4550 69° East 522 601 35,000  Level FlightAware
02:53AM 36.3340 -114.3300 69° East 523 602 35,000  Level FlightAware
02:53AM 36.3680 -114.2150 70° East 522 601 35,000  Level FlightAware
02:54AM 36.4040 -114.0940 70° East 523 602 35,000  Level FlightAware
02:55AM 36.4390 -113.9790 69° East 521 600 35,000  Level FlightAware
02:55AM 36.4720 -113.8660 70° East 522 601 35,000  Level FlightAware
02:56AM 36.5100 -113.7380 70° East 524 603 35,000  Level FlightAware
02:57AM 36.5440 -113.6240 70° East 525 604 35,000  Level FlightAware
02:58AM 36.5770 -113.5120 70° East 527 606 35,000  Level FlightAware
02:58AM 36.6140 -113.3860 70° East 529 609 35,000  Level FlightAware
02:59AM 36.6460 -113.2730 71° East 528 608 35,000  Level FlightAware
03:00AM 36.6830 -113.1450 70° East 527 606 35,000  Level FlightAware
03:00AM 36.7160 -113.0330 70° East 529 609 35,000  Level FlightAware
03:01AM 36.7540 -112.8990 70° East 528 608 35,000  Level FlightAware
03:02AM 36.7860 -112.7870 70° East 530 610 35,000  Level FlightAware
03:02AM 36.8190 -112.6700 71° East 529 609 35,000  Level FlightAware
03:03AM 36.8500 -112.5650 70° East 530 610 35,000  Level FlightAware
03:04AM 36.8780 -112.4670 70° East 530 610 35,000  Level FlightAware
03:05AM 36.9140 -112.3440 70° East 530 610 35,000  Level FlightAware
03:05AM 36.9430 -112.2460 70° East 530 610 35,000  Level FlightAware
03:06AM 36.9710 -112.1480 70° East 530 610 35,000  Level FlightAware
03:07AM 37.0000 -112.0500 70° East 530 610 35,000  Level FlightAware
03:07AM 37.0280 -111.9520 70° East 530 610 35,000  Level FlightAware
03:08AM 37.0640 -111.8290 70° East 530 610 35,000  Level FlightAware
03:09AM 37.0920 -111.7310 70° East 530 610 35,000  Level FlightAware
03:09AM 37.1210 -111.6330 70° East 530 610 35,000  Level FlightAware
03:10AM 37.1490 -111.5350 70° East 530 610 35,000  Level FlightAware
03:11AM 37.1780 -111.4360 70° East 530 610 35,000  Level FlightAware
03:12AM 37.2130 -111.3130 70° East 530 610 35,000  Level FlightAware
03:12AM 37.2420 -111.2150 70° East 530 610 35,000  Level FlightAware
03:13AM 37.3217 -110.8417 70° East 529 609 35,000  Level Denver Center
03:14AM 37.3769 -110.6311 72° East 531 611 35,000  Level Denver Center
03:15AM 37.4222 -110.4558 72° East 530 610 35,000  Level Denver Center
03:16AM 37.4681 -110.2797 72° East 532 612 35,000  Level Denver Center
03:17AM 37.5053 -110.1364 72° East 534 615 35,000  Level Denver Center
03:18AM 37.5561 -109.9364 72° East 538 619 35,000  Level Denver Center
03:19AM 37.6003 -109.7653 72° East 537 618 35,000  Level Denver Center
03:20AM 37.6511 -109.5647 72° East 536 617 35,000  Level Denver Center
03:21AM 37.6936 -109.3939 72° East 533 613 35,000  Level Denver Center
03:22AM 37.7364 -109.2236 72° East 532 612 35,000  Level Denver Center
03:23AM 37.7867 -109.0219 72° East 535 616 35,000  Level Denver Center
03:24AM 37.8375 -108.8553 69° East 531 611 35,000  Level Denver Center
03:25AM 37.8989 -108.6914 65° Northeast 535 616 35,000  Level Denver Center
03:26AM 37.9594 -108.5297 65° Northeast 534 615 35,000  Level Denver Center
03:27AM 38.0308 -108.3358 65° Northeast 538 619 35,000  Level Denver Center
03:28AM 38.0947 -108.1639 65° Northeast 544 626 35,000  Level Denver Center
03:29AM 38.1564 -107.9964 65° Northeast 548 631 35,000  Level Denver Center
03:30AM 38.2161 -107.8308 65° Northeast 541 623 35,000  Level Denver Center
03:36AM 38.5588 -106.8790 65° Northeast 550 633 35,000  Level FlightAware ADS-B
03:36AM 38.5903 -106.7890 66° East 552 635 35,000  Level FlightAware ADS-B
03:37AM 38.6218 -106.6990 66° East 554 638 35,000  Level FlightAware ADS-B
03:37AM 38.6537 -106.6090 66° East 554 638 35,000  Level FlightAware ADS-B
03:38AM 38.6853 -106.5190 66° East 552 635 35,000  Level FlightAware ADS-B
03:38AM 38.7167 -106.4270 66° East 553 636 35,000  Level FlightAware ADS-B
03:39AM 38.7566 -106.3120 66° East 553 636 35,000  Level FlightAware ADS-B
03:39AM 38.7882 -106.2210 66° East 557 641 35,000  Level FlightAware ADS-B
03:40AM 38.8197 -106.1290 66° East 554 638 35,000  Level FlightAware ADS-B
03:40AM 38.8504 -106.0400 66° East 551 634 35,000  Level FlightAware ADS-B
03:41AM 38.8818 -105.9480 66° East 549 632 35,000  Level FlightAware ADS-B
03:41AM 38.9125 -105.8590 66° East 550 633 35,000  Level FlightAware ADS-B
03:42AM 38.9473 -105.7560 66° East 553 636 35,000  Level FlightAware ADS-B
03:42AM 38.9781 -105.6650 66° East 554 638 35,000  Level FlightAware ADS-B
03:43AM 39.0092 -105.5730 66° East 556 640 35,000  Level FlightAware ADS-B
03:43AM 39.0402 -105.4820 66° East 553 636 35,000  Level FlightAware ADS-B
03:44AM 39.0707 -105.3910 67° East 552 635 35,000  Level FlightAware ADS-B
03:44AM 39.1019 -105.2980 67° East 553 636 35,000  Level FlightAware ADS-B
03:45AM 39.1322 -105.2070 67° East 554 638 35,000  Level FlightAware ADS-B
03:45AM 39.1624 -105.1160 67° East 553 636 35,000  Level FlightAware ADS-B
03:46AM 39.1924 -105.0250 67° East 553 636 35,000  Level FlightAware ADS-B
03:46AM 39.2228 -104.9340 67° East 554 638 35,000  Level FlightAware ADS-B
03:47AM 39.2538 -104.8390 67° East 554 638 35,000  Level FlightAware ADS-B
03:47AM 39.2837 -104.7480 67° East 553 636 35,000  Level FlightAware ADS-B
03:48AM 39.3141 -104.6550 67° East 553 636 35,000  Level FlightAware ADS-B
03:48AM 39.3439 -104.5640 67° East 554 638 35,000  Level FlightAware ADS-B
03:49AM 39.3750 -104.4690 67° East 554 638 35,000  Level FlightAware ADS-B
03:49AM 39.4054 -104.3750 67° East 555 639 35,000  Level FlightAware ADS-B
03:50AM 39.4350 -104.2830 67° East 555 639 35,000  Level FlightAware ADS-B
03:50AM 39.4649 -104.1900 67° East 553 636 35,000  Level FlightAware ADS-B
03:51AM 39.4949 -104.0960 68° East 553 636 35,000  Level FlightAware ADS-B
03:51AM 39.5243 -104.0040 67° East 553 636 35,000  Level FlightAware ADS-B
03:52AM 39.5537 -103.9120 67° East 554 638 35,000  Level FlightAware ADS-B
03:53AM 39.5833 -103.8190 68° East 556 640 35,000  Level FlightAware ADS-B
03:53AM 39.6127 -103.7260 68° East 556 640 35,000  Level FlightAware ADS-B
03:54AM 39.6422 -103.6320 68° East 558 642 35,000  Level FlightAware ADS-B
03:54AM 39.6718 -103.5380 68° East 559 643 35,000  Level FlightAware ADS-B
03:55AM 39.7013 -103.4440 68° East 559 643 35,000  Level FlightAware ADS-B
03:55AM 39.7308 -103.3500 68° East 559 643 35,000  Level FlightAware ADS-B
03:56AM 39.7601 -103.2560 68° East 560 644 35,000  Level FlightAware ADS-B
03:56AM 39.7891 -103.1620 68° East 560 644 35,000  Level FlightAware ADS-B
03:57AM 39.8190 -103.0650 68° East 561 646 35,000  Level FlightAware ADS-B
03:57AM 39.8483 -102.9700 68° East 561 646 35,000  Level FlightAware ADS-B
03:58AM 39.8780 -102.8730 68° East 561 646 35,000  Level FlightAware ADS-B
03:58AM 39.9084 -102.7740 68° East 560 644 35,000  Level FlightAware ADS-B
03:59AM 39.9374 -102.6790 68° East 559 643 35,000  Level FlightAware ADS-B
03:59AM 39.9660 -102.5850 68° East 559 643 35,000  Level FlightAware ADS-B
04:00AM 39.9945 -102.4900 69° East 559 643 35,000  Level FlightAware ADS-B
04:00AM 40.0229 -102.3960 68° East 558 642 35,000  Level FlightAware ADS-B
04:01AM 40.0512 -102.3020 69° East 558 642 35,000  Level FlightAware ADS-B
04:01AM 40.0796 -102.2070 69° East 558 642 35,000  Level FlightAware ADS-B
04:02AM 40.1079 -102.1120 69° East 557 641 35,000  Level FlightAware ADS-B
04:02AM 40.1360 -102.0180 69° East 556 640 35,000  Level FlightAware ADS-B
04:03AM 40.1639 -101.9240 69° East 555 639 35,000  Level FlightAware ADS-B
04:03AM 40.1917 -101.8310 69° East 554 638 35,000  Level FlightAware ADS-B
04:04AM 40.2195 -101.7360 69° East 553 636 35,000  Level FlightAware ADS-B
04:04AM 40.2468 -101.6420 69° East 553 636 35,000  Level FlightAware ADS-B
04:05AM 40.2746 -101.5470 69° East 552 635 35,000  Level FlightAware ADS-B
04:05AM 40.3020 -101.4520 69° East 548 631 35,000  Level FlightAware ADS-B
04:06AM 40.3290 -101.3590 69° East 546 628 35,000  Level FlightAware ADS-B
04:06AM 40.3559 -101.2660 69° East 548 631 35,000  Level FlightAware ADS-B
04:07AM 40.3857 -101.1620 69° East 549 632 35,000  Level FlightAware ADS-B
04:08AM 40.4333 -100.9947 69° East 545 627 35,000  Level Denver Center
04:09AM 40.5000 -100.7950 66° East 540 621 35,000  Level Denver Center
04:10AM 40.5617 -100.6256 64° Northeast 543 625 35,000  Level Denver Center
04:11AM 40.6233 -100.4567 64° Northeast 543 625 35,000  Level Denver Center
04:12AM 40.6942 -100.2592 65° Northeast 540 621 35,000  Level Denver Center
04:13AM 40.7561 -100.0856 65° Northeast 547 629 35,000  Level Denver Center
04:14AM 40.8178 -99.9111 65° Northeast 550 633 35,000  Level Denver Center
04:15AM 40.8806 -99.7344 65° Northeast 551 634 35,000  Level Denver Center
04:16AM 40.9450 -99.5497 65° Northeast 552 635 35,000 -240 Level Denver Center
04:17AM 41.0092 -99.3658 65° Northeast 550 633 34,600 -720 Descending Denver Center
04:18AM 41.0725 -99.1822 65° Northeast 547 629 33,600 -960 Descending Denver Center
04:18AM 41.1044 -99.0903 65° Northeast 550 633 33,200 -600 Descending Minneapolis Center
04:19AM 41.1444 -98.9706 66° East 556 640 33,000 -180 Descending Denver Center
04:20AM 41.2053 -98.7900 66° East 559 643 33,000  Level Denver Center
04:20AM 41.2331 -98.7114 65° Northeast 562 647 33,000  Level Minneapolis Center
04:21AM 41.2969 -98.5217 66° East 563 648 33,000  Level Minneapolis Center
04:22AM 41.3600 -98.3322 66° East 563 648 33,000  Level Minneapolis Center
04:23AM 41.4231 -98.1411 66° East 563 648 33,000  Level Minneapolis Center
04:24AM 41.4875 -97.9492 66° East 564 649 33,000  Level Minneapolis Center
04:25AM 41.5517 -97.7553 66° East 567 652 33,000  Level Minneapolis Center
04:26AM 41.6142 -97.5603 67° East 568 654 33,000  Level Minneapolis Center
04:27AM 41.6781 -97.3642 66° East 571 657 33,000  Level Minneapolis Center
04:28AM 41.7403 -97.1694 67° East 571 657 33,000  Level Minneapolis Center
04:29AM 41.8028 -96.9722 67° East 571 657 33,000  Level Minneapolis Center
04:30AM 41.8658 -96.7742 67° East 574 661 33,000  Level Minneapolis Center
04:31AM 41.9278 -96.5769 67° East 571 657 33,000  Level Minneapolis Center
04:32AM 41.9894 -96.3794 67° East 570 656 33,000  Level Minneapolis Center
04:33AM 42.0506 -96.1819 67° East 570 656 33,000  Level Minneapolis Center
04:34AM 42.1122 -95.9803 68° East 576 663 33,000  Level Minneapolis Center
04:35AM 42.1739 -95.7794 67° East 577 664 33,000  Level Minneapolis Center
04:36AM 42.2344 -95.5756 68° East 581 669 33,000  Level Minneapolis Center
04:37AM 42.2794 -95.3675 74° East 579 666 33,000  Level Minneapolis Center
04:43AM 42.3320 -94.0690 74° East 580 667 33,000  Level FlightAware
04:44AM 42.3370 -93.9520 87° East 580 667 33,000  Level FlightAware
04:45AM 42.3420 -93.8290 87° East 580 667 33,000  Level FlightAware
04:45AM 42.3480 -93.6080 88° East 586 674 33,000  Level FlightAware
04:46AM 42.3530 -93.4530 87° East 586 674 33,000  Level FlightAware
04:47AM 42.3570 -93.3300 87° East 585 673 33,000  Level FlightAware
04:48AM 42.3620 -93.1330 88° East 583 671 33,000  Level FlightAware
04:48AM 42.3650 -93.0020 88° East 581 669 33,000  Level FlightAware
04:49AM 42.3690 -92.8260 88° East 580 667 33,000  Level FlightAware
04:50AM 42.3730 -92.6830 88° East 580 667 33,000  Level FlightAware
04:50AM 42.3760 -92.5490 88° East 579 666 33,000  Level FlightAware
04:51AM 42.3790 -92.3840 89° East 578 665 33,000  Level FlightAware
04:52AM 42.3820 -92.2440 88° East 578 665 33,000  Level FlightAware
04:52AM 42.3840 -92.0990 89° East 578 665 33,000  Level FlightAware
04:53AM 42.3860 -91.9270 89° East 576 663 33,000  Level FlightAware
04:54AM 42.3870 -91.7830 89° East 575 662 33,000  Level FlightAware
04:55AM 42.3890 -91.6190 89° East 572 658 33,000  Level FlightAware
04:55AM 42.3900 -91.4810 89° East 571 657 33,000  Level FlightAware
04:56AM 42.3910 -91.3530 89° East 570 656 33,000  Level FlightAware
04:57AM 42.3920 -91.1760 90° East 567 652 33,000  Level FlightAware
04:57AM 42.3930 -91.0380 89° East 567 652 33,000  Level FlightAware
04:58AM 42.3930 -90.8750 90° East 566 651 33,000  Level FlightAware
04:59AM 42.3940 -90.7380 89° East 565 650 33,000 -960 Level FlightAware
04:59AM 42.3940 -90.5820 90° East 558 642 31,700 -2,220 Descending FlightAware
05:00AM 42.3930 -90.4560 91° East 559 643 30,100 -2,520 Descending FlightAware
05:01AM 42.3920 -90.3130 90° East 549 632 28,600 -2,280 Descending FlightAware
05:02AM 42.3930 -90.1440 89° East 533 613 26,700 -2,220 Descending FlightAware
05:02AM 42.3930 -90.0150 90° East 522 601 25,300 -2,220 Descending FlightAware
05:03AM 42.3910 -89.8710 91° East 503 579 23,600 -1,980 Descending FlightAware
05:04AM 42.3910 -89.7650 90° East 489 563 22,700 -1,620 Descending FlightAware
05:04AM 42.3890 -89.6330 91° East 458 527 21,500 -1,920 Descending FlightAware
05:05AM 42.3880 -89.5080 91° East 444 511 19,900 -2,520 Descending FlightAware
05:06AM 42.3870 -89.3980 91° East 443 510 18,000 -2,760 Descending FlightAware
05:06AM 42.3860 -89.2730 91° East 434 499 16,000 -2,280 Descending FlightAware
05:07AM 42.3850 -89.1720 91° East 424 488 14,800 -1,500 Descending FlightAware
05:08AM 42.3840 -89.0480 91° East 401 461 13,900 -1,080 Descending FlightAware
05:09AM 42.3830 -88.9510 91° East 388 447 13,300 -1,080 Descending FlightAware
05:09AM 42.3810 -88.8630 92° East 378 435 12,500 -1,440 Descending FlightAware
05:10AM 42.3790 -88.7530 91° East 368 423 11,300 -1,140 Descending FlightAware
05:11AM 42.3650 -88.6800 105° East 332 382 11,000 -900 Descending FlightAware
05:11AM 42.3320 -88.5920 117° Southeast 307 353 10,100 -1,140 Descending FlightAware
05:12AM 42.3170 -88.5510 116° Southeast 300 345 9,600 -1,380 Descending FlightAware
05:12AM 42.3110 -88.5340 116° Southeast 300 345 9,300 -1,620 Descending FlightAware
05:13AM 42.2890 -88.4750 117° Southeast 293 337 8,400 -1,320 Descending FlightAware
05:13AM 42.2770 -88.4440 118° Southeast 285 328 8,100 -900 Descending FlightAware
05:13AM 42.2700 -88.4250 116° Southeast 277 319 7,900 -720 Descending FlightAware
05:14AM 42.2490 -88.3690 117° Southeast 249 287 7,500 -720 Descending FlightAware
05:14AM 42.2370 -88.3360 116° Southeast 234 269 7,200 -900 Descending FlightAware
05:15AM 42.2220 -88.2960 117° Southeast 222 255 6,700 -1,020 Descending FlightAware
05:15AM 42.2120 -88.2690 117° Southeast 217 250 6,300 -1,080 Descending FlightAware
05:15AM 42.2010 -88.2400 117° Southeast 214 246 5,800 -1,440 Descending FlightAware
05:16AM 42.1830 -88.1930 117° Southeast 219 252 4,900 -1,200 Descending FlightAware
05:16AM 42.1750 -88.1700 115° Southeast 210 242 4,700 -780 Descending FlightAware
05:17AM 42.1590 -88.1300 118° Southeast 197 227 4,200 -600 Descending FlightAware
05:17AM 42.1520 -88.1180 128° Southeast 184 212 4,200  Level FlightAware
05:18AM 42.1400 -88.1020 135° Southeast 183 211 4,200 -180 Level FlightAware
05:18AM 42.1230 -88.0820 139° Southeast 181 208 4,100 -540 Descending FlightAware
05:19AM 42.1020 -88.0580 140° Southeast 179 206 3,700 -840 Descending FlightAware
05:19AM 42.0920 -88.0470 141° Southeast 173 199 3,400 -960 Descending FlightAware
05:19AM 42.0750 -88.0290 142° Southeast 152 175 3,000 -780 Descending FlightAware
05:20AM 42.0620 -88.0140 139° Southeast 146 168 2,700 -780 Descending FlightAware
05:20AM 42.0540 -88.0040 137° Southeast 146 168 2,500 -900 Descending FlightAware
05:20AM 42.0430 -87.9930 143° Southeast 151 174 2,200 -900 Descending FlightAware
05:21AM 42.0240 -87.9710 139° Southeast 145 167 1,700 -780 Descending FlightAware
05:21AM 42.0100 -87.9550 140° Southeast 147 169 1,400 -780 Descending FlightAware
05:22AM 41.9950 -87.9390 142° Southeast 152 175 1,000 -960 Descending FlightAware